createdAt,value
2019-01-16T00:01:49.537Z,6.90
2019-01-16T00:04:49.126Z,7.85
2019-01-16T00:07:53.211Z,6.58
2019-01-16T00:10:54.276Z,6.70
2019-01-16T00:17:32.653Z,7.40
2019-01-16T00:20:34.008Z,7.20
2019-01-16T00:23:49.027Z,7.83
2019-01-16T00:26:49.926Z,7.78
2019-01-16T00:29:51.253Z,6.47
2019-01-16T00:32:48.219Z,6.70
2019-01-16T00:36:08.333Z,7.75
2019-01-16T00:42:51.365Z,8.20
2019-01-16T00:46:12.245Z,8.78
2019-01-16T00:49:13.255Z,8.73
2019-01-16T00:52:22.327Z,8.80
2019-01-16T00:55:47.257Z,8.70
2019-01-16T00:58:55.780Z,8.80
2019-01-16T01:02:04.253Z,9.13
2019-01-16T01:05:02.871Z,9.68
2019-01-16T01:08:11.393Z,9.60
2019-01-16T01:11:20.121Z,9.28
2019-01-16T01:18:15.901Z,9.20
2019-01-16T01:21:12.745Z,9.10
2019-01-16T01:24:36.722Z,10.03
2019-01-16T01:27:56.871Z,10.23
2019-01-16T01:31:17.747Z,9.20
2019-01-16T01:34:18.996Z,9.30
2019-01-16T01:37:20.215Z,9.75
2019-01-16T01:40:24.127Z,9.30
2019-01-16T01:46:47.116Z,9.15
2019-01-16T01:49:45.261Z,8.90
2019-01-16T01:53:08.447Z,9.40
2019-01-16T01:56:35.379Z,8.75
2019-01-16T02:03:22.852Z,8.78
2019-01-16T02:06:31.316Z,9.30
2019-01-16T02:09:39.818Z,9.85
2019-01-16T02:12:48.712Z,9.60
2019-01-16T02:15:57.236Z,10.13
2019-01-16T02:18:58.764Z,11.05
2019-01-16T02:22:26.943Z,10.13
2019-01-16T02:25:35.425Z,11.00
2019-01-16T02:28:44.079Z,9.75
2019-01-16T02:31:52.788Z,10.43
2019-01-16T02:34:54.798Z,10.20
2019-01-16T02:37:58.799Z,10.23
2019-01-16T02:41:21.245Z,9.88
2019-01-16T02:44:29.958Z,9.75
2019-01-16T02:47:38.464Z,9.18
2019-01-16T02:50:46.953Z,10.30
2019-01-16T02:53:55.477Z,10.53
2019-01-16T02:57:04.125Z,10.63
2019-01-16T03:00:12.767Z,9.45
2019-01-16T03:03:21.427Z,10.88
2019-01-16T03:06:29.959Z,9.90
2019-01-16T03:09:38.478Z,10.38
2019-01-16T03:12:46.968Z,11.38
2019-01-16T03:15:55.459Z,11.40
2019-01-16T03:19:04.766Z,10.93
2019-01-16T03:22:25.744Z,12.47
2019-01-16T03:25:46.985Z,10.48
2019-01-16T03:28:53.761Z,11.45
2019-01-16T03:32:00.862Z,11.93
2019-01-16T03:38:35.420Z,11.10
2019-01-16T03:41:37.580Z,10.82
2019-01-16T03:47:58.289Z,12.23
2019-01-16T03:51:00.559Z,11.28
2019-01-16T03:54:02.829Z,11.53
2019-01-16T03:57:04.515Z,10.70
2019-01-16T04:00:37.970Z,10.40
2019-01-16T04:06:51.627Z,12.03
2019-01-16T04:09:55.961Z,10.95
2019-01-16T04:13:16.913Z,10.75
2019-01-16T04:19:46.158Z,11.68
2019-01-16T04:29:19.435Z,12.20
2019-01-16T04:32:21.341Z,11.97
2019-01-16T04:35:27.818Z,11.12
2019-01-16T04:38:46.779Z,11.83
2019-01-16T04:41:48.963Z,12.18
2019-01-16T04:47:57.710Z,11.18
2019-01-16T04:50:57.053Z,11.88
2019-01-16T04:53:59.409Z,11.68
2019-01-16T05:00:05.245Z,11.97
2019-01-16T05:03:26.204Z,11.43
2019-01-16T05:06:47.326Z,12.60
2019-01-16T05:09:54.083Z,11.63
2019-01-16T05:13:15.310Z,12.07
2019-01-16T05:16:22.474Z,16.80
2019-01-16T05:23:07.366Z,16.50
2019-01-16T05:26:11.243Z,12.90
2019-01-16T05:29:13.641Z,12.88
2019-01-16T05:32:13.913Z,13.08
2019-01-16T05:35:35.919Z,13.60
2019-01-16T05:38:38.119Z,13.20
2019-01-16T05:45:12.731Z,12.53
2019-01-16T05:51:20.163Z,11.63
2019-01-16T05:57:30.936Z,12.68
2019-01-16T06:00:51.805Z,13.00
2019-01-16T06:04:13.733Z,12.63
2019-01-16T06:07:15.019Z,12.93
2019-01-16T06:10:16.109Z,14.07
2019-01-16T06:13:27.991Z,12.90
2019-01-16T06:16:51.313Z,11.70
2019-01-16T06:22:58.353Z,12.98
2019-01-16T06:25:59.325Z,11.97
2019-01-16T06:29:01.746Z,13.78
2019-01-16T06:32:05.997Z,14.15
2019-01-16T06:35:26.773Z,13.65
2019-01-16T06:38:28.267Z,13.35
2019-01-16T06:44:53.794Z,12.73
2019-01-16T06:47:55.287Z,12.80
2019-01-16T06:51:01.988Z,12.53
2019-01-16T06:57:13.873Z,14.70
2019-01-16T07:00:34.073Z,15.90
2019-01-16T07:03:35.293Z,15.75
2019-01-16T07:09:59.667Z,15.05
2019-01-16T07:13:00.666Z,13.13
2019-01-16T07:16:05.104Z,15.28
2019-01-16T07:19:25.905Z,14.83
2019-01-16T07:26:19.645Z,14.30
2019-01-16T07:29:21.012Z,15.45
2019-01-16T07:32:22.233Z,17.20
2019-01-16T07:35:13.312Z,14.87
2019-01-16T07:38:34.502Z,15.10
2019-01-16T07:41:36.401Z,15.63
2019-01-16T07:51:32.558Z,14.10
2019-01-16T07:54:59.454Z,16.45
2019-01-16T07:58:20.065Z,14.33
2019-01-16T08:01:08.377Z,14.90
2019-01-16T08:04:09.698Z,14.58
2019-01-16T08:10:19.663Z,14.07
2019-01-16T08:17:06.713Z,14.98
2019-01-16T08:24:05.677Z,14.30
2019-01-16T08:27:14.149Z,13.25
2019-01-16T08:30:23.022Z,12.50
2019-01-16T08:33:31.556Z,12.28
2019-01-16T08:36:25.410Z,13.70
2019-01-16T08:43:04.271Z,12.90
2019-01-16T08:46:05.691Z,13.25
2019-01-16T08:49:08.240Z,13.83
2019-01-16T08:52:09.573Z,12.40
2019-01-16T08:55:10.872Z,11.65
2019-01-16T08:58:15.196Z,11.65
2019-01-16T09:01:17.455Z,10.80
2019-01-16T09:04:24.623Z,9.90
2019-01-16T09:07:46.033Z,11.15
2019-01-16T09:10:50.063Z,10.65
2019-01-16T09:13:50.977Z,9.08
2019-01-16T09:17:05.047Z,9.08
2019-01-16T09:20:27.128Z,9.38
2019-01-16T09:26:39.353Z,8.63
2019-01-16T09:29:43.086Z,9.58
2019-01-16T09:33:03.864Z,8.95
2019-01-16T09:36:05.331Z,9.03
2019-01-16T09:39:26.908Z,8.65
2019-01-16T09:45:27.067Z,9.10
2019-01-16T09:48:31.414Z,9.45
2019-01-16T09:51:55.481Z,10.43
2019-01-16T10:01:46.415Z,8.60
2019-01-16T10:04:50.309Z,9.03
2019-01-16T10:08:12.002Z,8.83
2019-01-16T10:17:27.781Z,10.93
2019-01-16T10:23:59.066Z,10.43
2019-01-16T10:30:57.813Z,13.08
2019-01-16T10:33:58.723Z,13.13
2019-01-16T10:37:02.628Z,13.70
2019-01-16T10:40:04.430Z,12.23
2019-01-16T10:43:06.571Z,12.63
2019-01-16T10:55:58.947Z,12.37
2019-01-16T10:59:01.077Z,11.90
2019-01-16T11:02:05.071Z,13.05
2019-01-16T11:05:23.733Z,11.80
2019-01-16T11:08:44.740Z,11.85
2019-01-16T11:15:47.123Z,11.75
2019-01-16T11:18:49.407Z,11.20
2019-01-16T11:22:09.612Z,11.60
2019-01-16T11:25:10.484Z,11.88
2019-01-16T11:28:37.242Z,12.30
2019-01-16T11:34:51.808Z,11.40
2019-01-16T11:37:58.687Z,10.70
2019-01-16T11:41:19.953Z,10.58
2019-01-16T11:47:31.958Z,10.30
2019-01-16T11:50:58.323Z,10.28
2019-01-16T11:54:00.751Z,10.75
2019-01-16T11:57:02.873Z,10.55
2019-01-16T12:03:10.065Z,10.88
2019-01-16T12:09:14.305Z,10.70
2019-01-16T12:15:19.370Z,12.67
2019-01-16T12:18:20.404Z,10.90
2019-01-16T12:28:00.874Z,10.57
2019-01-16T12:31:01.645Z,10.03
2019-01-16T12:34:03.720Z,12.30
2019-01-16T12:37:04.819Z,12.20
2019-01-16T12:40:07.026Z,11.10
2019-01-16T12:46:28.749Z,11.75
2019-01-16T12:49:25.137Z,10.90
2019-01-16T12:52:53.969Z,12.65
2019-01-16T12:55:50.676Z,10.67
2019-01-16T13:01:56.633Z,12.63
2019-01-16T13:05:17.976Z,11.40
2019-01-16T13:08:21.809Z,11.80
2019-01-16T13:11:45.133Z,11.57
2019-01-16T13:14:46.261Z,11.50
2019-01-16T13:18:07.491Z,10.27
2019-01-16T13:21:30.593Z,11.27
2019-01-16T13:24:52.679Z,10.30
2019-01-16T13:30:58.997Z,10.03
2019-01-16T13:34:22.793Z,10.77
2019-01-16T13:37:42.873Z,10.43
2019-01-16T13:40:44.316Z,9.63
2019-01-16T13:44:05.736Z,10.87
2019-01-16T13:47:07.405Z,8.40
2019-01-16T13:50:14.145Z,8.23
2019-01-16T13:53:38.645Z,8.10
2019-01-16T13:56:40.781Z,8.23
2019-01-16T14:02:38.776Z,7.13
2019-01-16T14:05:39.472Z,7.97
2019-01-16T14:08:40.594Z,7.87
2019-01-16T14:15:07.349Z,8.10
2019-01-16T14:18:23.897Z,8.40
2019-01-16T14:24:46.189Z,7.73
2019-01-16T14:27:47.669Z,7.60
2019-01-16T14:30:48.706Z,6.83
2019-01-16T14:34:14.981Z,6.87
2019-01-16T14:37:41.537Z,7.13
2019-01-16T14:40:42.776Z,7.53
2019-01-16T14:43:43.989Z,8.27
2019-01-16T14:46:45.378Z,7.83
2019-01-16T14:49:46.435Z,7.47
2019-01-16T14:52:50.217Z,7.40
2019-01-16T14:56:11.090Z,7.30
2019-01-16T14:59:12.502Z,7.90
2019-01-16T15:02:32.775Z,8.00
2019-01-16T15:05:33.797Z,8.23
2019-01-16T15:08:34.603Z,6.77
2019-01-16T15:11:35.243Z,8.60
2019-01-16T15:17:46.689Z,8.00
2019-01-16T15:24:00.411Z,8.03
2019-01-16T15:30:06.341Z,8.63
2019-01-16T15:33:07.296Z,9.30
2019-01-16T15:36:27.361Z,9.60
2019-01-16T15:39:18.089Z,7.77
2019-01-16T15:42:22.362Z,7.87
2019-01-16T15:45:41.661Z,7.37
2019-01-16T15:49:03.262Z,6.97
2019-01-16T15:55:36.944Z,9.90
2019-01-16T15:58:37.955Z,9.30
2019-01-16T16:01:41.983Z,7.30
2019-01-16T16:08:29.312Z,8.17
2019-01-16T16:11:30.126Z,8.48
2019-01-16T16:14:57.264Z,7.90
2019-01-16T16:18:20.906Z,8.73
2019-01-16T16:21:42.165Z,8.80
2019-01-16T16:24:37.420Z,7.50
2019-01-16T16:28:01.583Z,8.73
2019-01-16T16:34:55.862Z,7.83
2019-01-16T16:37:57.839Z,7.90
2019-01-16T16:40:58.685Z,9.70
2019-01-16T16:43:53.811Z,8.60
2019-01-16T16:46:54.774Z,6.95
2019-01-16T16:49:43.218Z,7.23
2019-01-16T16:53:04.065Z,6.90
2019-01-16T16:56:09.095Z,7.93
2019-01-16T17:02:35.323Z,7.72
2019-01-16T17:05:53.175Z,6.60
2019-01-16T17:09:01.806Z,8.38
2019-01-16T17:12:25.835Z,9.60
2019-01-16T17:15:47.735Z,9.63
2019-01-16T17:18:50.164Z,10.38
2019-01-16T17:21:52.388Z,8.70
2019-01-16T17:24:45.892Z,7.70
2019-01-16T17:28:07.643Z,7.78
2019-01-16T17:34:14.415Z,8.20
2019-01-16T17:37:20.994Z,7.70
2019-01-16T17:43:51.575Z,7.80
2019-01-16T17:49:58.316Z,7.30
2019-01-16T17:53:05.211Z,8.20
2019-01-16T17:56:25.508Z,8.28
2019-01-16T18:03:11.492Z,8.17
2019-01-16T18:06:37.691Z,7.85
2019-01-16T18:12:45.525Z,8.58
2019-01-16T18:16:06.433Z,6.97
2019-01-16T18:19:22.813Z,8.15
2019-01-16T18:22:23.569Z,8.65
2019-01-16T18:25:44.857Z,7.65
2019-01-16T18:32:23.927Z,8.05
2019-01-16T18:35:24.816Z,8.53
2019-01-16T18:42:22.189Z,8.00
2019-01-16T18:48:47.425Z,8.73
2019-01-16T18:52:02.884Z,8.75
2019-01-16T19:01:30.920Z,7.08
2019-01-16T19:04:30.755Z,8.78
2019-01-16T19:07:57.907Z,7.97
2019-01-16T19:14:24.031Z,8.80
2019-01-16T19:17:42.601Z,8.73
2019-01-16T19:20:45.137Z,7.90
2019-01-16T19:23:47.237Z,7.60
2019-01-16T19:26:48.313Z,7.95
2019-01-16T19:29:49.051Z,7.33
2019-01-16T19:32:51.279Z,8.33
2019-01-16T19:35:53.569Z,7.87
2019-01-16T19:38:55.917Z,7.80
2019-01-16T19:41:58.194Z,8.00
2019-01-16T19:45:00.537Z,8.55
2019-01-16T19:47:55.293Z,7.70
2019-01-16T19:51:17.764Z,7.80
2019-01-16T19:57:24.056Z,8.60
2019-01-16T20:00:28.363Z,7.97
2019-01-16T20:03:55.041Z,7.65
2019-01-16T20:07:16.355Z,8.20
2019-01-16T20:10:23.245Z,8.03
2019-01-16T20:13:11.876Z,8.50
2019-01-16T20:16:31.904Z,8.35
2019-01-16T20:19:53.088Z,7.03
2019-01-16T20:25:48.718Z,7.33
2019-01-16T20:31:52.448Z,7.47
2019-01-16T20:35:10.046Z,7.20
2019-01-16T20:38:28.907Z,7.40
2019-01-16T20:41:29.522Z,8.35
2019-01-16T20:44:32.094Z,6.70
2019-01-16T20:47:33.213Z,7.28
2019-01-16T20:53:41.273Z,7.12
2019-01-16T20:57:07.885Z,7.87
2019-01-16T21:00:28.821Z,7.20
2019-01-16T21:06:47.847Z,7.17
2019-01-16T21:09:57.628Z,7.80
2019-01-16T21:12:59.579Z,8.25
2019-01-16T21:18:58.530Z,7.37
2019-01-16T21:22:02.488Z,8.13
2019-01-16T21:25:20.093Z,8.58
2019-01-16T21:28:40.829Z,8.25
2019-01-16T21:31:41.851Z,9.48
2019-01-16T21:34:43.544Z,7.55
2019-01-16T21:37:44.177Z,8.78
2019-01-16T21:40:45.967Z,8.10
2019-01-16T21:43:47.122Z,8.63
2019-01-16T21:46:48.099Z,9.08
2019-01-16T21:49:49.387Z,8.45
2019-01-16T21:52:50.885Z,9.25
2019-01-16T21:56:11.801Z,9.33
2019-01-16T21:59:32.443Z,9.38
2019-01-16T22:02:33.475Z,8.50
2019-01-16T22:05:37.332Z,9.10
2019-01-16T22:08:57.409Z,8.60
2019-01-16T22:11:58.759Z,9.55
2019-01-16T22:15:18.804Z,9.48
2019-01-16T22:18:20.025Z,9.63
2019-01-16T22:21:24.266Z,8.38
2019-01-16T22:24:51.040Z,8.38
2019-01-16T22:28:14.255Z,9.10
2019-01-16T22:34:53.737Z,9.03
2019-01-16T22:37:54.720Z,8.15
2019-01-16T22:41:15.561Z,9.40
2019-01-16T22:44:22.916Z,9.03
2019-01-16T22:47:23.677Z,9.50
2019-01-16T22:53:59.471Z,9.53
2019-01-16T23:00:03.871Z,9.50
2019-01-16T23:03:11.058Z,9.00
2019-01-16T23:06:14.705Z,9.15
2019-01-16T23:09:41.097Z,9.10
2019-01-16T23:13:04.530Z,8.85
2019-01-16T23:16:06.048Z,9.20
2019-01-16T23:19:07.138Z,9.40
2019-01-16T23:22:28.054Z,9.47
2019-01-16T23:25:25.301Z,10.82
2019-01-16T23:28:27.689Z,10.65
2019-01-16T23:31:28.794Z,11.10
2019-01-16T23:34:50.865Z,10.17
2019-01-16T23:40:59.448Z,10.13
2019-01-16T23:44:21.591Z,10.32
2019-01-16T23:47:28.072Z,10.88
2019-01-16T23:50:28.900Z,10.45
2019-01-16T23:53:56.046Z,10.58
2019-01-16T23:57:14.837Z,10.72
